01:55 MTB Moetz - Roppen - Oetztal Trail - Stams oben - Pfaffenhofen - MSC - Moetz
Ort Moetz Datum 17.06.2017 16:41:33
Kategorie MTB
Distanz 50,01 Kilometer Steigung 320,0 Meter Gefälle -325,0 Meter
Gesamt Zeit 01:54:50 Aktiv 01:54:50 Pause 00:00:00
Durchs. Tempo 26,1 km/h Tempo max. 48,1 km/h Tempo min. 9,7 km/h
Kalorien 0 Durchs. HF 115 BPM HF max. 143 BPM
Wetter 23 °C Clouds Min/Max: 21,8 °C/23,7 °C; Druck: 1021,4 mbar; Rel. Feuchte: 39,1%; Taupunkt: 7,5 °C; Windgeschwindigkeit: 10,3 km/h; Niederschlag: 0,0mm
Ausrüstung Bontrager - Race X Lite MTB
BMC - Teamelite 02 XT 2016 XL
Notiz Moetz - Roppen - Oetztal Trail - Stams oben - Pfaffenhofen - MSC - Moetz ... trocken, starker, drehender Wind - eher locker ... Oetztaltrail 4:15,1 - 1,54 - 21,,7 - 123 - 77 ... garmin connect
Splits
Distanz (km) Gesamt Zeit Split Zeit Split Tempo Split Tempo Höhenprofil (m)
1,00 00:02:12 00:02:12 00:02:13 27,1 -0,96
2,00 00:04:21 00:02:08 00:02:09 27,9 2,71
3,00 00:06:33 00:02:11 00:02:11 27,4 5,79
4,00 00:08:21 00:01:48 00:01:49 33,1 0,39
5,00 00:10:12 00:01:50 00:01:51 32,6 -1,59
6,00 00:12:02 00:01:50 00:01:50 32,6 3,38
7,00 00:14:01 00:01:58 00:01:59 30,3 11,78
8,00 00:17:22 00:03:21 00:03:21 17,9 46,35
9,00 00:19:40 00:02:17 00:02:17 26,2 -7,09
10,00 00:21:23 00:01:43 00:01:44 34,7 -16,37
11,00 00:23:20 00:01:56 00:01:57 30,9 -16,06
12,00 00:26:10 00:02:50 00:02:50 21,2 22,69
13,00 00:28:35 00:02:25 00:02:25 24,7 -5,11
14,00 00:31:12 00:02:36 00:02:36 23,0 0,36
15,00 00:33:54 00:02:42 00:02:43 22,1 -4,56
16,00 00:36:35 00:02:40 00:02:41 22,4 2,45
17,00 00:38:43 00:02:07 00:02:08 28,2 -3,06
18,00 00:41:00 00:02:17 00:02:18 26,2 -9,03
19,00 00:43:54 00:02:53 00:02:53 20,8 6,93
20,00 00:46:38 00:02:43 00:02:44 22,0 -16,22
21,00 00:49:04 00:02:26 00:02:27 24,6 -11,30
22,00 00:51:17 00:02:12 00:02:13 27,1 0,92
23,00 00:53:57 00:02:39 00:02:40 22,5 2,37
24,00 00:55:58 00:02:00 00:02:01 29,8 -1,75
25,00 00:58:07 00:02:09 00:02:09 27,9 1,80
26,00 01:00:13 00:02:06 00:02:06 28,5 -10,29
27,00 01:02:21 00:02:08 00:02:08 28,0 -4,66
28,00 01:04:22 00:02:00 00:02:00 29,9 -2,10
29,00 01:06:22 00:02:00 00:02:00 30,0 -5,45
30,00 01:08:38 00:02:16 00:02:17 26,4 8,21
31,00 01:11:28 00:02:49 00:02:49 21,2 22,38
32,00 01:12:56 00:01:28 00:01:28 40,9 -21,71
33,00 01:16:07 00:03:11 00:03:11 18,8 34,06
34,00 01:18:42 00:02:34 00:02:35 23,3 11,53
35,00 01:20:37 00:01:54 00:01:55 31,3 -18,73
36,00 01:22:03 00:01:26 00:01:26 41,7 -41,65
37,00 01:23:51 00:01:47 00:01:48 33,4 -7,93
38,00 01:25:58 00:02:07 00:02:07 28,3 -5,24
39,00 01:28:12 00:02:13 00:02:14 27,0 -2,05
40,00 01:30:17 00:02:04 00:02:05 28,8 1,74
41,00 01:32:30 00:02:13 00:02:13 27,1 2,81
42,00 01:34:41 00:02:11 00:02:12 27,4 -3,32
43,00 01:37:02 00:02:20 00:02:21 25,6 1,58
44,00 01:39:20 00:02:18 00:02:18 26,0 2,83
45,00 01:41:41 00:02:20 00:02:20 25,7 2,72
46,00 01:44:05 00:02:24 00:02:24 25,0 2,35
47,00 01:46:41 00:02:36 00:02:36 23,1 2,95
48,00 01:49:19 00:02:38 00:02:38 22,8 4,21
49,00 01:51:40 00:02:20 00:02:21 25,6 0,98
50,00 01:54:14 00:02:34 00:02:34 23,4 15,44
50,22 01:54:50 00:00:35 00:02:43 22,1 -2,11